Time;durP1;ratioP1;P1;durP2;ratioP2;P2;SDS_P1;SDS_P2;PMS_P1;PMS_P2;Temp;Humidity;BMP_temperature;BMP_pressure;BME280_temperature;BME280_humidity;BME280_pressure;Samples;Min_cycle;Max_cycle;Signal;HPM_P1;HPM_P2
2022/01/11 00:00:27;;;;;;;;;40.00;30.00;;;;;-0.74;82.79;100089.41;6283035;20;2873289;-42
2022/01/11 00:02:57;;;;;;;;;42.33;34.33;;;;;-0.90;83.52;100083.41;6282526;20;2868115;-41
2022/01/11 00:05:33;;;;;;;;;34.00;26.00;;;;;-0.97;83.78;100087.00;6314364;20;2500358;-42
2022/01/11 00:08:02;;;;;;;;;39.00;33.50;;;;;-0.85;83.15;100091.28;6282627;20;2500359;-42
2022/01/11 00:10:35;;;;;;;;;34.00;24.67;;;;;-0.67;82.49;100091.97;6281894;20;3574310;-41
2022/01/11 00:13:03;;;;;;;;;39.00;26.50;;;;;-0.68;82.47;100087.59;6284973;20;2856521;-42
2022/01/11 00:15:31;;;;;;;;;37.00;30.00;;;;;-0.94;83.42;100097.50;6281848;20;2500240;-41
2022/01/11 00:18:00;;;;;;;;;41.50;31.00;;;;;-0.61;82.50;100104.22;6279861;20;2500262;-43
2022/01/11 00:20:28;;;;;;;;;35.00;29.50;;;;;-0.64;82.38;100108.66;6279882;20;2500284;-41
2022/01/11 00:25:45;;;;;;;;;38.00;29.00;;;;;-0.71;82.53;100111.38;6280615;20;2500294;-44
2022/01/11 00:28:18;;;;;;;;;34.00;29.00;;;;;-0.55;82.12;100114.72;6283571;20;2849216;-42
2022/01/11 00:30:50;;;;;;;;;24.50;18.50;;;;;-0.69;82.55;100114.84;6284466;20;2827497;-41
2022/01/11 00:33:33;;;;;;;;;34.00;29.00;;;;;-0.74;82.21;100115.78;6277002;20;2498196;-42
2022/01/11 00:36:03;;;;;;;;;32.33;22.67;;;;;-1.05;83.60;100121.31;6280809;20;3592088;-42
2022/01/11 00:38:36;;;;;;;;;30.50;26.50;;;;;-0.73;82.73;100123.69;6279008;20;2500434;-42
2022/01/11 00:41:09;;;;;;;;;40.00;33.00;;;;;-0.93;83.43;100121.19;6280982;20;2866954;-41
2022/01/11 00:43:39;;;;;;;;;33.50;27.00;;;;;-0.72;82.40;100128.06;6281760;20;2500286;-42
2022/01/11 00:46:09;;;;;;;;;33.00;29.00;;;;;-0.77;82.58;100126.34;6285069;20;2849244;-41
2022/01/11 00:48:39;;;;;;;;;35.50;25.00;;;;;-0.80;82.41;100137.78;6278638;20;2498224;-43
2022/01/11 00:51:10;;;;;;;;;32.00;28.00;;;;;-0.76;82.29;100133.38;6279891;20;2835757;-41
2022/01/11 00:53:41;;;;;;;;;37.00;28.33;;;;;-0.80;82.94;100129.00;6284013;20;3595069;-42
2022/01/11 00:56:10;;;;;;;;;43.33;27.67;;;;;-0.72;82.32;100130.69;6283468;20;3581501;-41
2022/01/11 00:58:37;;;;;;;;;39.50;28.00;;;;;-0.70;82.51;100128.91;6278683;20;2869031;-41
2022/01/11 01:01:07;;;;;;;;;35.67;28.33;;;;;-0.76;82.23;100142.16;6280716;20;3607715;-41
2022/01/11 01:03:36;;;;;;;;;29.00;25.00;;;;;-0.57;81.51;100147.28;6277862;20;2831537;-41
2022/01/11 01:06:05;;;;;;;;;36.00;27.00;;;;;-0.76;81.76;100136.88;6279951;20;3590951;-41
2022/01/11 01:08:34;;;;;;;;;24.67;18.67;;;;;-0.84;82.46;100143.09;6283164;20;3575320;-42
2022/01/11 01:11:02;;;;;;;;;33.00;26.00;;;;;-0.76;82.79;100150.06;6308645;20;2500280;-41
2022/01/11 01:13:31;;;;;;;;;29.67;25.00;;;;;-0.74;82.04;100147.41;6281883;20;3589879;-41
2022/01/11 01:16:00;;;;;;;;;33.50;25.50;;;;;-0.61;81.56;100156.09;6283002;20;2845153;-41
2022/01/11 01:18:32;;;;;;;;;30.67;18.67;;;;;-0.70;81.80;100155.28;6282804;20;3606605;-41
2022/01/11 01:21:00;;;;;;;;;28.00;27.00;;;;;-0.72;82.00;100162.31;6281796;20;2840881;-41
2022/01/11 01:23:28;;;;;;;;;30.50;24.50;;;;;-0.72;82.01;100164.97;6284883;20;2844030;-41
2022/01/11 01:25:58;;;;;;;;;32.33;23.67;;;;;-0.63;82.00;100163.13;6283672;20;3576427;-41
2022/01/11 01:28:26;;;;;;;;;30.00;24.00;;;;;-0.73;82.33;100170.25;6316487;20;2500309;-41
2022/01/11 01:31:00;;;;;;;;;30.50;21.00;;;;;-0.73;82.13;100171.13;6280759;20;2831517;-41
2022/01/11 01:33:32;;;;;;;;;16.00;15.33;;;;;-0.72;82.19;100170.22;6278008;20;3549243;-42
2022/01/11 01:36:02;;;;;;;;;30.00;23.00;;;;;-0.55;81.75;100163.97;6313581;20;2826313;-42
2022/01/11 01:38:33;;;;;;;;;40.00;24.67;;;;;-0.59;80.96;100162.22;6279573;20;3588802;-41
2022/01/11 01:41:11;;;;;;;;;23.67;21.67;;;;;-0.65;81.06;100170.22;6280138;20;3549177;-43
2022/01/11 01:43:39;;;;;;;;;25.00;20.00;;;;;-0.59;81.63;100170.16;6313560;20;2848188;-43
2022/01/11 01:46:08;;;;;;;;;30.00;24.33;;;;;-0.75;81.26;100175.53;6280266;20;3594105;-43
2022/01/11 01:48:39;;;;;;;;;22.00;18.67;;;;;-0.64;80.91;100166.66;6303400;20;2836821;-42
2022/01/11 01:51:10;;;;;;;;;29.00;21.67;;;;;-0.64;80.85;100164.91;6306500;20;3574184;-43
2022/01/11 01:53:57;;;;;;;;;37.00;25.67;;;;;-0.72;80.94;100172.88;6280256;20;3578391;-43
2022/01/11 01:56:27;;;;;;;;;28.50;19.50;;;;;-0.92;81.42;100175.69;6282610;20;2849357;-41
2022/01/11 01:58:56;;;;;;;;;19.67;19.00;;;;;-1.17;82.16;100179.34;6281516;20;3555566;-42
2022/01/11 02:01:26;;;;;;;;;23.00;20.33;;;;;-1.00;81.44;100184.50;6311207;20;3566298;-42
2022/01/11 02:03:55;;;;;;;;;31.00;21.00;;;;;-0.92;81.03;100182.72;6310281;20;3588751;-42
2022/01/11 02:06:24;;;;;;;;;27.33;25.00;;;;;-1.18;81.60;100183.75;6279181;20;3577337;-41
2022/01/11 02:08:53;;;;;;;;;25.67;19.33;;;;;-1.03;81.64;100184.53;6312763;20;3584624;-41
2022/01/11 02:11:25;;;;;;;;;29.67;22.67;;;;;-1.09;81.15;100193.34;6279913;20;3590830;-42
2022/01/11 02:13:54;;;;;;;;;23.50;18.50;;;;;-1.02;81.23;100194.19;6278221;20;2837796;-42
2022/01/11 02:16:23;;;;;;;;;32.00;23.67;;;;;-1.02;81.23;100186.28;6279967;20;3573124;-42
2022/01/11 02:18:53;;;;;;;;;27.67;21.67;;;;;-1.05;80.84;100183.66;6311276;20;3574183;-41
2022/01/11 02:21:23;;;;;;;;;23.33;21.33;;;;;-1.11;81.34;100181.94;6307966;20;3571101;-41
2022/01/11 02:23:52;;;;;;;;;28.00;20.00;;;;;-1.19;81.33;100181.09;6315897;20;2725360;-41
2022/01/11 02:26:22;;;;;;;;;25.00;21.00;;;;;-1.06;80.60;100182.78;6308959;20;3568057;-41
2022/01/11 02:28:51;;;;;;;;;22.33;21.33;;;;;-0.97;81.13;100184.50;6313018;20;3567940;-43
2022/01/11 02:31:21;;;;;;;;;27.67;20.00;;;;;-1.26;81.54;100192.56;6278123;20;3572213;-42
2022/01/11 02:33:57;;;;;;;;;25.67;21.67;;;;;-0.92;80.33;100187.97;6310500;20;3580606;-42
2022/01/11 02:36:35;;;;;;;;;31.00;18.67;;;;;-1.07;80.86;100201.25;6311304;20;3603415;-43
2022/01/11 02:39:05;;;;;;;;;25.67;18.33;;;;;-1.14;81.06;100201.25;6280188;20;3585771;-42
2022/01/11 02:41:33;;;;;;;;;30.00;19.00;;;;;-1.32;80.97;100193.47;6279888;20;2851317;-43
2022/01/11 02:44:02;;;;;;;;;19.67;18.00;;;;;-1.29;81.30;100196.09;6282212;20;3552315;-41
2022/01/11 02:46:31;;;;;;;;;21.67;16.67;;;;;-1.36;81.60;100194.38;6310058;20;3552318;-42
2022/01/11 02:48:59;;;;;;;;;26.00;20.33;;;;;-1.26;81.31;100196.09;6312079;20;3565914;-42
2022/01/11 02:51:27;;;;;;;;;29.00;21.50;;;;;-1.36;81.24;100199.66;6308281;20;2833655;-43
2022/01/11 02:53:57;;;;;;;;;18.00;18.00;;;;;-1.51;81.87;100200.59;6278448;20;2839852;-42
2022/01/11 02:56:26;;;;;;;;;18.00;17.33;;;;;-1.52;81.52;100197.97;6279638;20;2808730;-43
2022/01/11 02:58:55;;;;;;;;;20.67;17.33;;;;;-1.61;81.76;100205.00;6312666;20;3555602;-43
2022/01/11 03:01:25;;;;;;;;;25.00;22.00;;;;;-1.63;81.83;100206.78;6310933;20;2843154;-42
2022/01/11 03:03:54;;;;;;;;;22.00;17.33;;;;;-1.75;81.93;100200.69;6315978;20;3540953;-42
2022/01/11 03:06:23;;;;;;;;;20.33;17.00;;;;;-1.63;81.96;100209.41;6313836;20;3548259;-42
2022/01/11 03:08:52;;;;;;;;;17.33;17.00;;;;;-1.72;82.04;100209.44;6312311;20;3550653;-42
2022/01/11 03:11:23;;;;;;;;;25.33;19.00;;;;;-1.90;82.64;100206.84;6311009;20;3581529;-41
2022/01/11 03:13:54;;;;;;;;;27.33;18.00;;;;;-1.99;83.04;100206.00;6333873;20;3606461;-43
2022/01/11 03:16:23;;;;;;;;;28.00;21.00;;;;;-1.94;82.86;100208.63;6281930;20;3584587;-42
2022/01/11 03:18:51;;;;;;;;;18.33;15.67;;;;;-2.09;82.92;100206.91;6312273;20;3539809;-43
2022/01/11 03:21:21;;;;;;;;;19.40;16.00;;;;;-2.04;82.77;100205.13;6336470;20;2800301;-45
2022/01/11 03:23:50;;;;;;;;;24.00;17.67;;;;;-2.06;83.01;100212.16;6287110;20;3558588;-43
2022/01/11 03:26:19;;;;;;;;;28.67;21.00;;;;;-1.95;82.83;100208.63;6314571;20;3604594;-42
2022/01/11 03:28:48;;;;;;;;;17.67;14.33;;;;;-2.03;82.88;100204.28;6283792;20;2795210;-44
2022/01/11 03:31:22;;;;;;;;;29.00;19.33;;;;;-2.35;83.38;100219.22;6336316;20;3601324;-41
2022/01/11 03:33:51;;;;;;;;;21.00;17.00;;;;;-2.31;83.51;100226.22;6283050;20;3569006;-43
2022/01/11 03:36:21;;;;;;;;;24.40;17.80;;;;;-2.14;82.81;100223.56;6336612;20;2825749;-41
2022/01/11 03:38:51;;;;;;;;;25.33;18.33;;;;;-2.31;83.18;100226.22;6306779;20;3583876;-41
2022/01/11 03:41:20;;;;;;;;;16.33;13.33;;;;;-2.29;82.99;100219.19;6281380;20;3526444;-43
2022/01/11 03:43:48;;;;;;;;;24.00;19.67;;;;;-2.33;83.54;100227.97;6316209;20;3557582;-41
2022/01/11 03:46:18;;;;;;;;;24.00;19.20;;;;;-2.24;83.03;100228.84;6339400;20;2828491;-41
2022/01/11 03:48:49;;;;;;;;;23.83;20.00;;;;;-2.37;83.64;100236.72;6307638;20;2828811;-41
2022/01/11 03:51:18;;;;;;;;;21.00;14.00;;;;;-2.36;83.39;100241.13;6337262;20;2825334;-41
2022/01/11 03:54:04;;;;;;;;;26.00;17.00;;;;;-2.32;83.04;100234.97;6284567;20;3590868;-41
2022/01/11 03:56:32;;;;;;;;;20.00;16.00;;;;;-2.50;82.98;100239.38;6314531;20;2835720;-43
2022/01/11 03:59:06;;;;;;;;;24.00;20.00;;;;;-2.35;82.98;100241.13;6283590;20;3568025;-42
2022/01/11 04:01:37;;;;;;;;;27.67;17.67;;;;;-2.65;83.76;100247.25;6313119;20;3589819;-41
2022/01/11 04:04:09;;;;;;;;;21.40;16.80;;;;;-2.66;83.61;100253.38;6339410;20;2808596;-42
2022/01/11 04:06:41;;;;;;;;;18.50;13.17;;;;;-2.73;84.17;100254.25;6322975;20;1823178;-43
2022/01/11 04:09:12;;;;;;;;;22.67;17.67;;;;;-2.50;84.03;100251.63;6285097;20;3568987;-44
2022/01/11 04:11:41;;;;;;;;;27.33;21.33;;;;;-2.51;83.56;100253.38;6313394;20;3567998;-41
2022/01/11 04:14:10;;;;;;;;;32.33;20.33;;;;;-2.47;83.12;100252.53;6314953;20;3599225;-42
2022/01/11 04:16:38;;;;;;;;;18.33;15.00;;;;;-2.45;82.63;100255.13;6279976;20;2807532;-41
2022/01/11 04:19:06;;;;;;;;;21.00;19.00;;;;;-2.45;83.52;100260.38;6313556;20;2835786;-42
2022/01/11 04:21:36;;;;;;;;;23.40;17.40;;;;;-2.65;83.43;100265.66;6302661;20;2838835;-41
2022/01/11 04:24:04;;;;;;;;;22.00;13.50;;;;;-2.78;84.02;100266.50;6284616;20;2802365;-42
2022/01/11 04:26:33;;;;;;;;;23.67;19.67;;;;;-2.79;84.06;100270.00;6282108;20;3569001;-42
2022/01/11 04:29:02;;;;;;;;;28.67;20.00;;;;;-2.83;84.11;100279.63;6313814;20;3587786;-41
2022/01/11 04:31:31;;;;;;;;;23.33;17.67;;;;;-2.96;84.50;100269.97;6314844;20;3569004;-41
2022/01/11 04:34:03;;;;;;;;;23.33;19.67;;;;;-3.03;85.14;100276.94;6314049;20;3565922;-43
2022/01/11 04:36:31;;;;;;;;;32.00;25.50;;;;;-3.07;85.75;100280.44;6315837;20;2843093;-41
2022/01/11 04:39:07;;;;;;;;;37.67;30.33;;;;;-2.96;85.49;100283.09;6283050;20;3599224;-41
2022/01/11 04:41:35;;;;;;;;;33.00;26.50;;;;;-2.99;84.98;100294.47;6282042;20;2834753;-45
2022/01/11 04:44:05;;;;;;;;;25.00;21.00;;;;;-2.96;85.40;100298.84;6280359;20;3575322;-42
2022/01/11 04:46:35;;;;;;;;;36.33;21.33;;;;;-3.07;85.43;100305.84;6312057;20;3600310;-41
2022/01/11 04:49:04;;;;;;;;;28.00;19.67;;;;;-3.12;85.74;100308.44;6283010;20;3597100;-42
2022/01/11 04:51:34;;;;;;;;;20.00;14.00;;;;;-3.13;85.38;100304.94;6278334;20;3557663;-42
2022/01/11 04:54:05;;;;;;;;;29.67;22.50;;;;;-3.21;85.74;100311.91;6336122;20;2843064;-41
2022/01/11 04:56:35;;;;;;;;;20.67;16.33;;;;;-2.92;84.95;100312.00;6313543;20;3555560;-42
2022/01/11 04:59:06;;;;;;;;;38.00;21.00;;;;;-3.15;85.08;100318.94;6310789;20;3585642;-41
2022/01/11 05:01:34;;;;;;;;;29.67;22.33;;;;;-3.23;85.81;100325.91;6280244;20;3581477;-42
2022/01/11 05:04:03;;;;;;;;;32.00;26.33;;;;;-3.26;85.55;100318.00;6281786;20;3575249;-43
2022/01/11 05:06:32;;;;;;;;;32.67;21.67;;;;;-2.99;84.85;100323.38;6314531;20;3581484;-41
2022/01/11 05:09:00;;;;;;;;;38.00;35.00;;;;;-3.39;85.39;100323.19;6311432;20;2852467;-41
2022/01/11 05:11:28;;;;;;;;;15.50;15.50;;;;;-3.18;85.65;100329.44;6279309;20;2815568;-42
2022/01/11 05:13:57;;;;;;;;;36.67;26.00;;;;;-3.34;86.11;100334.59;6282163;20;3592930;-42
2022/01/11 05:16:25;;;;;;;;;61.00;45.00;;;;;-3.18;85.54;100334.69;6280492;20;2500425;-40
2022/01/11 05:18:53;;;;;;;;;54.00;43.00;;;;;-3.22;85.36;100343.41;6282823;20;2500259;-42
2022/01/11 05:21:22;;;;;;;;;37.33;34.00;;;;;-3.15;85.46;100346.06;6311289;20;3595027;-40
2022/01/11 05:23:51;;;;;;;;;59.50;42.00;;;;;-3.29;85.08;100350.38;6279144;20;2869156;-41
2022/01/11 05:26:19;;;;;;;;;51.00;41.00;;;;;-3.23;85.25;100352.16;6279633;20;2500407;-41
2022/01/11 05:28:48;;;;;;;;;46.00;30.33;;;;;-3.29;85.21;100352.09;6280110;20;3608579;-41
2022/01/11 05:31:16;;;;;;;;;43.50;39.00;;;;;-3.26;85.15;100357.41;6276909;20;2500290;-42
2022/01/11 05:33:44;;;;;;;;;53.50;39.50;;;;;-3.48;85.67;100359.88;6284566;20;2872141;-42
2022/01/11 05:36:12;;;;;;;;;28.33;22.00;;;;;-3.36;85.53;100361.72;6279406;20;3585653;-46
2022/01/11 05:38:40;;;;;;;;;28.50;21.00;;;;;-3.29;85.55;100367.84;6312658;20;2840926;-45
2022/01/11 05:41:11;;;;;;;;;31.50;20.67;;;;;-3.20;85.22;100365.28;6302318;20;3587754;-40
2022/01/11 05:43:40;;;;;;;;;23.67;18.33;;;;;-3.27;85.31;100377.50;6281009;20;3555475;-44
2022/01/11 05:46:09;;;;;;;;;31.33;23.33;;;;;-3.23;84.88;100378.41;6312747;20;3577295;-41
2022/01/11 05:48:38;;;;;;;;;31.00;25.00;;;;;-3.14;85.59;100381.06;6310350;20;3582531;-42
2022/01/11 05:51:06;;;;;;;;;30.00;19.67;;;;;-3.01;84.39;100385.50;6313143;20;3595065;-41
2022/01/11 05:53:34;;;;;;;;;26.00;21.00;;;;;-3.09;84.64;100387.22;6281883;20;2707536;-41
2022/01/11 05:56:03;;;;;;;;;14.00;13.00;;;;;-3.08;84.97;100394.25;6278937;20;2810665;-41
2022/01/11 05:58:32;;;;;;;;;33.67;24.00;;;;;-3.03;84.55;100392.50;6283220;20;3582572;-42
2022/01/11 06:01:01;;;;;;;;;32.67;21.33;;;;;-3.03;84.25;100397.75;6311738;20;3577382;-41
2022/01/11 06:03:32;;;;;;;;;24.33;19.33;;;;;-3.10;84.77;100401.25;6280612;20;3577352;-41
2022/01/11 06:06:02;;;;;;;;;21.80;16.60;;;;;-2.93;84.39;100404.81;6336984;20;2821074;-41
2022/01/11 06:08:31;;;;;;;;;31.67;26.67;;;;;-3.11;84.04;100409.97;6282175;20;3561834;-42
2022/01/11 06:11:00;;;;;;;;;22.00;18.33;;;;;-3.24;85.49;100413.41;6310554;20;3575297;-40
2022/01/11 06:13:29;;;;;;;;;25.67;21.00;;;;;-2.99;85.02;100415.31;6312613;20;3560649;-40
2022/01/11 06:15:57;;;;;;;;;27.33;18.67;;;;;-3.06;84.85;100415.25;6307889;20;3587776;-42
2022/01/11 06:18:26;;;;;;;;;36.67;22.33;;;;;-3.03;84.66;100423.16;6280395;20;3604416;-40
2022/01/11 06:20:55;;;;;;;;;27.33;19.67;;;;;-2.96;84.31;100420.56;6277027;20;3578343;-40
2022/01/11 06:23:24;;;;;;;;;26.00;20.00;;;;;-3.11;85.17;100425.72;6313517;20;3568005;-41
2022/01/11 06:25:52;;;;;;;;;34.67;21.67;;;;;-3.14;85.02;100433.59;6311104;20;3583618;-40
2022/01/11 06:28:22;;;;;;;;;23.40;22.20;;;;;-2.92;84.49;100427.63;6303744;20;2833667;-41
2022/01/11 06:30:51;;;;;;;;;23.67;19.67;;;;;-3.07;85.00;100438.03;6279800;20;3570149;-40
2022/01/11 06:33:20;;;;;;;;;28.00;21.33;;;;;-2.96;84.63;100449.47;6312464;20;3587754;-40
2022/01/11 06:35:48;;;;;;;;;24.00;14.00;;;;;-3.06;84.75;100447.66;6308781;20;2818336;-41
2022/01/11 06:38:17;;;;;;;;;23.00;20.00;;;;;-3.04;84.49;100452.94;6282860;20;3577479;-41
2022/01/11 06:40:45;;;;;;;;;23.33;18.33;;;;;-2.97;84.18;100458.22;6321846;20;3579483;-40
2022/01/11 06:43:15;;;;;;;;;25.60;16.80;;;;;-3.26;85.07;100457.19;6347039;20;2829909;-41
2022/01/11 06:45:44;;;;;;;;;23.33;19.67;;;;;-3.03;84.83;100459.94;6290515;20;3573133;-42
2022/01/11 06:48:14;;;;;;;;;24.33;20.00;;;;;-3.18;85.14;100471.22;6324219;20;3568064;-41
2022/01/11 06:50:45;;;;;;;;;27.43;23.29;;;;;-3.00;84.71;100475.69;6353985;20;1840003;-41
2022/01/11 06:53:14;;;;;;;;;30.33;24.00;;;;;-3.11;85.25;100470.38;6319793;20;3576288;-41
2022/01/11 06:55:43;;;;;;;;;38.00;23.00;;;;;-3.16;84.83;100485.22;6324723;20;3588809;-43
2022/01/11 06:58:13;;;;;;;;;30.00;25.67;;;;;-3.12;85.18;100481.78;6321575;20;3571070;-41
2022/01/11 07:00:44;;;;;;;;;25.00;15.60;;;;;-3.09;84.74;100482.66;6347337;20;2811728;-41
2022/01/11 07:03:15;;;;;;;;;31.33;23.33;;;;;-3.22;85.42;100490.44;6292134;20;3574188;-41
2022/01/11 07:05:44;;;;;;;;;28.67;24.33;;;;;-3.16;84.89;100495.72;6325032;20;3569067;-40
2022/01/11 07:08:14;;;;;;;;;32.33;26.00;;;;;-3.10;85.06;100496.66;6322842;20;3576348;-41
2022/01/11 07:10:44;;;;;;;;;25.00;20.80;;;;;-2.84;84.16;100503.84;6343975;20;2838908;-41
2022/01/11 07:13:13;;;;;;;;;25.00;21.00;;;;;-3.06;84.46;100504.56;6291966;20;3569004;-41
2022/01/11 07:15:41;;;;;;;;;28.67;24.00;;;;;-2.99;84.35;100503.75;6322269;20;3569025;-41
2022/01/11 07:18:11;;;;;;;;;32.00;19.00;;;;;-2.74;83.84;100504.75;6321225;20;3589975;-41
2022/01/11 07:20:44;;;;;;;;;26.00;22.67;;;;;-2.74;83.04;100503.03;6290049;20;3569010;-40
2022/01/11 07:23:15;;;;;;;;;32.83;24.33;;;;;-2.52;82.67;100506.66;6345212;20;2843002;-40
2022/01/11 07:25:44;;;;;;;;;31.67;22.67;;;;;-2.55;82.44;100501.38;6323059;20;3582530;-42
2022/01/11 07:28:15;;;;;;;;;58.50;48.50;;;;;-2.25;81.88;100508.50;6287068;20;2867342;-40
2022/01/11 07:30:45;;;;;;;;;264.67;210.33;;;;;-2.15;81.04;100512.06;6289989;20;3699325;-41
2022/01/11 07:33:13;;;;;;;;;40.50;33.00;;;;;-2.04;80.86;100517.34;6286602;20;2500689;-42
2022/01/11 07:35:41;;;;;;;;;43.50;32.50;;;;;-2.02;80.65;100511.22;6287448;20;2500741;-40
2022/01/11 07:38:10;;;;;;;;;38.00;30.00;;;;;-2.15;80.23;100516.44;6290236;20;3604436;-42
2022/01/11 07:40:38;;;;;;;;;80.50;62.50;;;;;-2.00;81.85;100512.09;6286371;20;2500303;-40
2022/01/11 07:43:08;;;;;;;;;55.50;46.00;;;;;-1.79;80.53;100513.00;6290486;20;2861721;-44
2022/01/11 07:45:36;;;;;;;;;29.50;27.00;;;;;-1.74;79.54;100519.16;6291792;20;2847162;-41
2022/01/11 07:48:05;;;;;;;;;34.33;31.33;;;;;-1.58;78.77;100526.22;6291387;20;3596095;-40
2022/01/11 07:50:33;;;;;;;;;56.50;41.50;;;;;-1.81;79.11;100522.69;6279222;20;2492954;-41
2022/01/11 07:53:05;;;;;;;;;21.20;9.60;;;;;-1.47;79.42;100518.34;6309794;20;2804431;-40
2022/01/11 07:55:34;;;;;;;;;30.33;26.67;;;;;-1.40;78.24;100521.84;6285424;20;3583563;-40
2022/01/11 07:58:02;;;;;;;;;28.00;24.00;;;;;-1.21;77.54;100531.53;6314537;20;2831536;-40
2022/01/11 08:00:31;;;;;;;;;33.67;28.00;;;;;-1.24;77.41;100528.84;6282846;20;3585677;-40
2022/01/11 08:03:00;;;;;;;;;32.67;28.67;;;;;-0.98;76.89;100535.88;6285265;20;3589841;-40
2022/01/11 08:05:29;;;;;;;;;36.67;30.67;;;;;-0.90;76.61;100532.34;6286059;20;3592971;-40
2022/01/11 08:07:58;;;;;;;;;24.50;22.00;;;;;-1.00;76.32;100533.28;6288575;20;2826272;-44
2022/01/11 08:10:27;;;;;;;;;23.00;21.67;;;;;-0.92;76.10;100534.13;6288729;20;3558685;-45
2022/01/11 08:12:56;;;;;;;;;32.67;28.00;;;;;-0.76;75.65;100542.91;6319449;20;3569094;-42
2022/01/11 08:15:24;;;;;;;;;39.50;36.00;;;;;-0.75;76.86;100544.63;6285999;20;2860658;-43
2022/01/11 08:17:52;;;;;;;;;40.00;33.50;;;;;-0.57;78.11;100545.50;6282304;20;2500400;-43
2022/01/11 08:20:20;;;;;;;;;38.00;32.50;;;;;-0.57;76.52;100545.50;6285243;20;2500294;-43
2022/01/11 08:22:48;;;;;;;;;41.00;30.50;;;;;-0.23;75.76;100538.34;6284020;20;2494443;-43
2022/01/11 08:25:16;;;;;;;;;37.00;31.00;;;;;-0.54;74.70;100546.34;6287970;20;2854424;-41
2022/01/11 08:27:45;;;;;;;;;34.00;26.00;;;;;-0.27;73.68;100549.78;6284062;20;2500266;-41
2022/01/11 08:30:14;;;;;;;;;41.00;30.00;;;;;-0.35;74.23;100547.19;6288160;20;2863795;-42
2022/01/11 08:32:42;;;;;;;;;34.00;29.00;;;;;0.00;72.89;100551.47;6282898;20;2500293;-43
2022/01/11 08:35:10;;;;;;;;;26.00;22.00;;;;;0.09;72.49;100543.47;6285961;20;2493992;-42
2022/01/11 08:37:39;;;;;;;;;45.00;33.00;;;;;0.16;73.00;100553.13;6279416;20;2500269;-42
2022/01/11 08:40:08;;;;;;;;;34.50;24.00;;;;;0.06;73.35;100553.19;6282724;20;2500354;-42
2022/01/11 08:42:38;;;;;;;;;34.00;23.00;;;;;0.14;72.32;100556.66;6287867;20;3584736;-43
2022/01/11 08:45:07;;;;;;;;;30.00;20.50;;;;;0.31;71.45;100561.84;6284127;20;2500259;-43
2022/01/11 08:47:36;;;;;;;;;33.67;27.67;;;;;0.20;71.73;100556.63;6288409;20;3570003;-41
2022/01/11 08:50:10;;;;;;;;;33.00;30.33;;;;;0.37;70.77;100559.16;6286478;20;3599223;-41
2022/01/11 08:52:45;;;;;;;;;35.00;26.50;;;;;0.58;70.69;100559.06;6286679;20;2840927;-44
2022/01/11 08:55:14;;;;;;;;;35.00;28.00;;;;;0.61;69.19;100559.03;6287816;20;2864868;-42
2022/01/11 08:57:44;;;;;;;;;22.00;20.33;;;;;0.51;68.82;100567.91;6284672;20;3553403;-42
2022/01/11 09:00:18;;;;;;;;;32.00;26.00;;;;;0.75;69.21;100563.34;6287210;20;2844049;-43
2022/01/11 09:02:52;;;;;;;;;24.33;21.33;;;;;0.88;69.14;100562.34;6285896;20;3548149;-42
2022/01/11 09:05:23;;;;;;;;;32.00;26.00;;;;;0.76;68.17;100563.31;6283715;20;2851337;-43
2022/01/11 09:07:51;;;;;;;;;31.00;22.50;;;;;0.91;69.37;100562.31;6286438;20;2838864;-42
2022/01/11 09:10:20;;;;;;;;;38.00;30.50;;;;;0.93;69.80;100560.53;6285466;20;2861779;-43
2022/01/11 09:12:50;;;;;;;;;31.00;24.00;;;;;0.80;68.71;100561.53;6284691;20;3568170;-43
2022/01/11 09:15:19;;;;;;;;;33.00;28.00;;;;;1.02;67.71;100568.38;6285918;20;2863788;-43
2022/01/11 09:17:49;;;;;;;;;37.50;28.00;;;;;1.16;66.78;100559.44;6281708;20;2500244;-42
2022/01/11 09:20:17;;;;;;;;;33.00;28.50;;;;;1.19;67.76;100559.44;6284281;20;2500228;-43
2022/01/11 09:22:46;;;;;;;;;24.00;21.00;;;;;1.39;66.60;100554.81;6287456;20;3573145;-40
2022/01/11 09:25:16;;;;;;;;;32.67;22.00;;;;;1.44;66.88;100557.44;6285154;20;3586667;-43
2022/01/11 09:27:45;;;;;;;;;37.50;31.00;;;;;1.10;67.54;100555.97;6286341;20;2845055;-42
2022/01/11 09:30:15;;;;;;;;;28.33;22.00;;;;;1.30;66.49;100557.56;6286974;20;3558584;-42
2022/01/11 09:32:43;;;;;;;;;44.50;35.50;;;;;1.45;66.86;100557.44;6282689;20;2500212;-43
2022/01/11 09:35:15;;;;;;;;;37.00;28.00;;;;;1.74;65.56;100556.22;6283295;20;2862770;-43
2022/01/11 09:37:46;;;;;;;;;37.00;28.00;;;;;1.43;65.94;100556.56;6284149;20;2869028;-45
2022/01/11 09:40:15;;;;;;;;;42.00;34.50;;;;;1.14;66.11;100554.19;6286315;20;2863783;-43
2022/01/11 09:42:45;;;;;;;;;49.50;41.50;;;;;1.30;66.35;100552.28;6284764;20;2862775;-42
2022/01/11 09:45:14;;;;;;;;;43.50;32.00;;;;;1.53;65.57;100558.22;6285972;20;2858601;-43
2022/01/11 09:47:42;;;;;;;;;34.50;26.00;;;;;1.84;66.17;100560.50;6283730;20;2500277;-42
2022/01/11 09:50:13;;;;;;;;;31.50;24.00;;;;;1.93;65.03;100555.09;6283033;20;2500303;-45
2022/01/11 09:52:41;;;;;;;;;30.67;25.67;;;;;1.94;64.60;100558.63;6285488;20;3576286;-42
2022/01/11 09:55:13;;;;;;;;;27.50;19.00;;;;;2.03;64.47;100554.97;6317393;20;2832583;-42
2022/01/11 09:57:43;;;;;;;;;27.00;20.67;;;;;1.70;64.42;100555.38;6282166;20;3555449;-44
2022/01/11 10:00:13;;;;;;;;;29.33;23.00;;;;;1.83;64.82;100548.16;6315384;20;3569009;-43
2022/01/11 10:02:42;;;;;;;;;25.67;21.33;;;;;1.95;64.39;100544.50;6284352;20;3570207;-44
2022/01/11 10:05:12;;;;;;;;;28.00;24.00;;;;;1.98;64.22;100545.34;6315721;20;3562730;-45
2022/01/11 10:07:42;;;;;;;;;26.00;23.00;;;;;2.22;63.50;100545.03;6316584;20;3572162;-43
2022/01/11 10:10:23;;;;;;;;;31.67;28.00;;;;;2.35;62.81;100544.84;6284638;20;3588785;-41
2022/01/11 10:13:03;;;;;;;;;24.00;21.00;;;;;2.22;62.87;100548.56;6280037;20;2500468;-43
2022/01/11 10:15:39;;;;;;;;;28.50;24.00;;;;;2.22;62.75;100553.84;6285001;20;2838784;-44
2022/01/11 10:18:08;;;;;;;;;29.00;21.00;;;;;1.85;63.05;100540.22;6282850;20;2827442;-44
2022/01/11 10:20:37;;;;;;;;;26.67;23.00;;;;;2.38;62.25;100541.28;6285539;20;3574158;-43
2022/01/11 10:23:13;;;;;;;;;22.00;20.00;;;;;2.32;61.21;100546.66;6286403;20;2828374;-45
2022/01/11 10:25:49;;;;;;;;;29.00;22.33;;;;;2.51;61.29;100549.94;6285078;20;3575262;-43
2022/01/11 10:28:35;;;;;;;;;21.67;19.00;;;;;2.57;60.59;100540.09;6315387;20;3557509;-43
2022/01/11 10:31:04;;;;;;;;;28.33;24.00;;;;;2.67;60.30;100538.19;6313670;20;3576289;-43
2022/01/11 10:33:33;;;;;;;;;39.33;34.67;;;;;2.81;60.39;100541.47;6283320;20;2866941;-44
2022/01/11 10:36:02;;;;;;;;;16.33;13.00;;;;;2.45;60.71;100545.59;6314815;20;3524222;-46
2022/01/11 10:38:31;;;;;;;;;29.00;22.00;;;;;2.53;60.31;100542.84;6308185;20;2500257;-44
2022/01/11 10:40:59;;;;;;;;;30.00;20.50;;;;;2.93;60.51;100545.72;6285176;20;2839836;-45
2022/01/11 10:43:29;;;;;;;;;27.33;21.00;;;;;2.68;60.03;100542.56;6282690;20;3585646;-42
2022/01/11 10:46:02;;;;;;;;;19.67;18.67;;;;;2.93;60.15;100556.34;6282514;20;3560662;-40
2022/01/11 10:48:39;;;;;;;;;9.60;8.40;;;;;2.70;57.98;100556.69;6341720;20;2738923;-39
2022/01/11 10:51:15;;;;;;;;;13.00;13.00;;;;;2.38;57.74;100554.53;6314226;20;2786706;-40
2022/01/11 10:53:49;;;;;;;;;5.00;2.50;;;;;2.71;57.68;100553.13;6302712;20;1815367;-44
2022/01/11 10:56:18;;;;;;;;;24.00;24.00;;;;;2.89;57.60;100554.63;6312215;20;2831532;-45
2022/01/11 10:59:10;;;;;;;;;20.50;15.50;;;;;2.80;57.60;100555.66;6278141;20;2809616;-46
2022/01/11 11:01:42;;;;;;;;;19.00;19.00;;;;;3.16;56.75;100555.06;6279584;20;2824241;-45
2022/01/11 11:04:31;;;;;;;;;11.00;6.00;;;;;2.89;57.11;100556.41;6284454;20;2761702;-45
2022/01/11 11:07:15;;;;;;;;;15.50;8.50;;;;;3.22;56.17;100563.81;6284216;20;2766920;-46
2022/01/11 11:09:52;;;;;;;;;12.00;11.50;;;;;3.48;56.25;100567.78;6287999;20;2785679;-45
2022/01/11 11:12:26;;;;;;;;;13.86;12.57;;;;;3.28;55.51;100566.34;6324901;20;1820737;-46